sensor_id;sensor_type;location;lat;lon;timestamp;pressure;altitude;pressure_sealevel;temperature;humidity
75247;BME280;63844;50.042;19.224;2024-02-14T00:01:21;99483.88;;;0.67;100.00
75247;BME280;63844;50.042;19.224;2024-02-14T00:02:58;99481.13;;;0.65;100.00
75247;BME280;63844;50.042;19.224;2024-02-14T00:04:34;99485.48;;;0.65;100.00
75247;BME280;63844;50.042;19.224;2024-02-14T00:06:11;99483.55;;;0.66;100.00
75247;BME280;63844;50.042;19.224;2024-02-14T00:07:49;99484.08;;;0.65;100.00
75247;BME280;63844;50.042;19.224;2024-02-14T00:09:26;99483.75;;;0.64;100.00
75247;BME280;63844;50.042;19.224;2024-02-14T00:11:02;99482.17;;;0.65;100.00
75247;BME280;63844;50.042;19.224;2024-02-14T00:12:39;99487.58;;;0.64;100.00
75247;BME280;63844;50.042;19.224;2024-02-14T00:14:15;99486.90;;;0.64;100.00
75247;BME280;63844;50.042;19.224;2024-02-14T00:15:52;99493.52;;;0.64;100.00
75247;BME280;63844;50.042;19.224;2024-02-14T00:17:29;99494.02;;;0.64;100.00
75247;BME280;63844;50.042;19.224;2024-02-14T00:19:05;99491.74;;;0.65;100.00
75247;BME280;63844;50.042;19.224;2024-02-14T00:20:42;99494.01;;;0.65;100.00
75247;BME280;63844;50.042;19.224;2024-02-14T00:22:18;99496.97;;;0.65;100.00
75247;BME280;63844;50.042;19.224;2024-02-14T00:23:55;99493.29;;;0.66;100.00
75247;BME280;63844;50.042;19.224;2024-02-14T00:25:32;99492.20;;;0.70;100.00
75247;BME280;63844;50.042;19.224;2024-02-14T00:27:09;99492.15;;;0.72;100.00
75247;BME280;63844;50.042;19.224;2024-02-14T00:28:46;99491.95;;;0.74;100.00
75247;BME280;63844;50.042;19.224;2024-02-14T00:30:23;99487.05;;;0.75;100.00
75247;BME280;63844;50.042;19.224;2024-02-14T00:32:00;99491.20;;;0.76;100.00
75247;BME280;63844;50.042;19.224;2024-02-14T00:33:37;99488.23;;;0.77;100.00
75247;BME280;63844;50.042;19.224;2024-02-14T00:35:14;99492.91;;;0.78;100.00
75247;BME280;63844;50.042;19.224;2024-02-14T00:36:50;99490.81;;;0.79;100.00
75247;BME280;63844;50.042;19.224;2024-02-14T00:38:26;99495.89;;;0.77;100.00
75247;BME280;63844;50.042;19.224;2024-02-14T00:40:03;99496.43;;;0.76;100.00
75247;BME280;63844;50.042;19.224;2024-02-14T00:41:40;99497.63;;;0.78;100.00
75247;BME280;63844;50.042;19.224;2024-02-14T00:43:17;99498.13;;;0.79;100.00
75247;BME280;63844;50.042;19.224;2024-02-14T00:44:53;99499.71;;;0.78;100.00
75247;BME280;63844;50.042;19.224;2024-02-14T00:46:30;99498.03;;;0.75;100.00
75247;BME280;63844;50.042;19.224;2024-02-14T00:48:07;99495.13;;;0.71;100.00
75247;BME280;63844;50.042;19.224;2024-02-14T00:49:43;99497.71;;;0.74;100.00
75247;BME280;63844;50.042;19.224;2024-02-14T00:51:21;99497.66;;;0.76;100.00
75247;BME280;63844;50.042;19.224;2024-02-14T00:52:58;99499.91;;;0.77;100.00
75247;BME280;63844;50.042;19.224;2024-02-14T00:54:34;99502.73;;;0.75;100.00
75247;BME280;63844;50.042;19.224;2024-02-14T00:56:11;99503.44;;;0.74;100.00
75247;BME280;63844;50.042;19.224;2024-02-14T00:57:47;99502.94;;;0.74;100.00
75247;BME280;63844;50.042;19.224;2024-02-14T00:59:24;99500.31;;;0.74;100.00
75247;BME280;63844;50.042;19.224;2024-02-14T01:01:01;99503.52;;;0.79;100.00
75247;BME280;63844;50.042;19.224;2024-02-14T01:02:38;99503.17;;;0.80;100.00
75247;BME280;63844;50.042;19.224;2024-02-14T01:04:15;99503.53;;;0.78;100.00
75247;BME280;63844;50.042;19.224;2024-02-14T01:05:51;99501.95;;;0.79;100.00
75247;BME280;63844;50.042;19.224;2024-02-14T01:07:28;99497.91;;;0.81;100.00
75247;BME280;63844;50.042;19.224;2024-02-14T01:09:04;99496.73;;;0.80;100.00
75247;BME280;63844;50.042;19.224;2024-02-14T01:10:41;99491.67;;;0.79;100.00
75247;BME280;63844;50.042;19.224;2024-02-14T01:12:17;99493.77;;;0.79;100.00
75247;BME280;63844;50.042;19.224;2024-02-14T01:13:54;99497.77;;;0.79;100.00
75247;BME280;63844;50.042;19.224;2024-02-14T01:15:30;99498.84;;;0.78;100.00
75247;BME280;63844;50.042;19.224;2024-02-14T01:17:07;99497.08;;;0.79;100.00
75247;BME280;63844;50.042;19.224;2024-02-14T01:18:44;99495.81;;;0.81;100.00
75247;BME280;63844;50.042;19.224;2024-02-14T01:20:21;99494.77;;;0.81;100.00
75247;BME280;63844;50.042;19.224;2024-02-14T01:21:57;99494.41;;;0.81;100.00
75247;BME280;63844;50.042;19.224;2024-02-14T01:23:34;99493.39;;;0.81;100.00
75247;BME280;63844;50.042;19.224;2024-02-14T01:25:10;99492.54;;;0.80;100.00
75247;BME280;63844;50.042;19.224;2024-02-14T01:26:47;99492.55;;;0.80;100.00
75247;BME280;63844;50.042;19.224;2024-02-14T01:28:23;99487.14;;;0.80;100.00
75247;BME280;63844;50.042;19.224;2024-02-14T01:30:00;99485.23;;;0.79;100.00
75247;BME280;63844;50.042;19.224;2024-02-14T01:31:36;99482.78;;;0.80;100.00
75247;BME280;63844;50.042;19.224;2024-02-14T01:33:13;99481.88;;;0.81;100.00
75247;BME280;63844;50.042;19.224;2024-02-14T01:34:50;99482.41;;;0.80;100.00
75247;BME280;63844;50.042;19.224;2024-02-14T01:36:26;99484.76;;;0.76;100.00
75247;BME280;63844;50.042;19.224;2024-02-14T01:38:04;99484.80;;;0.73;100.00
75247;BME280;63844;50.042;19.224;2024-02-14T01:39:41;99484.45;;;0.74;100.00
75247;BME280;63844;50.042;19.224;2024-02-14T01:41:17;99487.06;;;0.75;100.00
75247;BME280;63844;50.042;19.224;2024-02-14T01:42:54;99485.66;;;0.75;100.00
75247;BME280;63844;50.042;19.224;2024-02-14T01:44:31;99486.86;;;0.76;100.00
75247;BME280;63844;50.042;19.224;2024-02-14T01:46:08;99485.49;;;0.75;100.00
75247;BME280;63844;50.042;19.224;2024-02-14T01:47:45;99486.39;;;0.73;100.00
75247;BME280;63844;50.042;19.224;2024-02-14T01:49:22;99486.07;;;0.71;100.00
75247;BME280;63844;50.042;19.224;2024-02-14T01:50:59;99486.98;;;0.68;100.00
75247;BME280;63844;50.042;19.224;2024-02-14T01:52:40;99487.34;;;0.69;100.00
75247;BME280;63844;50.042;19.224;2024-02-14T01:54:17;99484.85;;;0.71;100.00
75247;BME280;63844;50.042;19.224;2024-02-14T01:55:54;99486.39;;;0.73;100.00
75247;BME280;63844;50.042;19.224;2024-02-14T01:57:31;99483.95;;;0.73;100.00
75247;BME280;63844;50.042;19.224;2024-02-14T01:59:09;99484.67;;;0.72;100.00
75247;BME280;63844;50.042;19.224;2024-02-14T02:00:45;99485.70;;;0.73;100.00
75247;BME280;63844;50.042;19.224;2024-02-14T02:02:24;99484.45;;;0.74;100.00
75247;BME280;63844;50.042;19.224;2024-02-14T02:04:03;99486.51;;;0.75;100.00
75247;BME280;63844;50.042;19.224;2024-02-14T02:05:41;99488.26;;;0.75;100.00
75247;BME280;63844;50.042;19.224;2024-02-14T02:07:18;99490.40;;;0.74;100.00
75247;BME280;63844;50.042;19.224;2024-02-14T02:08:56;99489.70;;;0.74;100.00
75247;BME280;63844;50.042;19.224;2024-02-14T02:10:33;99487.96;;;0.72;100.00
75247;BME280;63844;50.042;19.224;2024-02-14T02:12:09;99484.50;;;0.71;100.00
75247;BME280;63844;50.042;19.224;2024-02-14T02:13:46;99486.23;;;0.72;100.00
75247;BME280;63844;50.042;19.224;2024-02-14T02:15:22;99479.94;;;0.73;100.00
75247;BME280;63844;50.042;19.224;2024-02-14T02:16:59;99484.98;;;0.73;100.00
75247;BME280;63844;50.042;19.224;2024-02-14T02:18:36;99484.82;;;0.73;100.00
75247;BME280;63844;50.042;19.224;2024-02-14T02:20:15;99487.83;;;0.69;100.00
75247;BME280;63844;50.042;19.224;2024-02-14T02:21:53;99490.85;;;0.67;100.00
75247;BME280;63844;50.042;19.224;2024-02-14T02:23:29;99489.50;;;0.64;100.00
75247;BME280;63844;50.042;19.224;2024-02-14T02:25:07;99492.15;;;0.62;100.00
75247;BME280;63844;50.042;19.224;2024-02-14T02:26:44;99489.42;;;0.59;100.00
75247;BME280;63844;50.042;19.224;2024-02-14T02:28:21;99486.85;;;0.56;100.00
75247;BME280;63844;50.042;19.224;2024-02-14T02:30:00;99485.80;;;0.56;100.00
75247;BME280;63844;50.042;19.224;2024-02-14T02:31:39;99488.21;;;0.58;100.00
75247;BME280;63844;50.042;19.224;2024-02-14T02:33:15;99489.23;;;0.61;100.00
75247;BME280;63844;50.042;19.224;2024-02-14T02:34:52;99489.05;;;0.61;100.00
75247;BME280;63844;50.042;19.224;2024-02-14T02:36:28;99489.05;;;0.59;100.00
75247;BME280;63844;50.042;19.224;2024-02-14T02:38:06;99487.67;;;0.58;100.00
75247;BME280;63844;50.042;19.224;2024-02-14T02:39:42;99492.43;;;0.56;100.00
75247;BME280;63844;50.042;19.224;2024-02-14T02:41:19;99495.56;;;0.56;100.00
75247;BME280;63844;50.042;19.224;2024-02-14T02:42:56;99496.77;;;0.57;100.00
75247;BME280;63844;50.042;19.224;2024-02-14T02:44:32;99500.45;;;0.56;100.00
75247;BME280;63844;50.042;19.224;2024-02-14T02:46:09;99502.02;;;0.56;100.00
75247;BME280;63844;50.042;19.224;2024-02-14T02:47:46;99500.80;;;0.55;100.00
75247;BME280;63844;50.042;19.224;2024-02-14T02:49:24;99500.98;;;0.54;100.00
75247;BME280;63844;50.042;19.224;2024-02-14T02:51:00;99506.06;;;0.54;100.00
75247;BME280;63844;50.042;19.224;2024-02-14T02:52:37;99499.79;;;0.54;100.00
75247;BME280;63844;50.042;19.224;2024-02-14T02:54:14;99503.61;;;0.54;100.00
75247;BME280;63844;50.042;19.224;2024-02-14T02:55:50;99502.21;;;0.54;100.00
75247;BME280;63844;50.042;19.224;2024-02-14T02:57:28;99502.74;;;0.54;100.00
75247;BME280;63844;50.042;19.224;2024-02-14T02:59:05;99504.30;;;0.55;100.00
75247;BME280;63844;50.042;19.224;2024-02-14T03:00:42;99506.89;;;0.57;100.00
75247;BME280;63844;50.042;19.224;2024-02-14T03:02:18;99508.63;;;0.56;100.00
75247;BME280;63844;50.042;19.224;2024-02-14T03:03:55;99507.58;;;0.56;100.00
75247;BME280;63844;50.042;19.224;2024-02-14T03:05:31;99507.61;;;0.55;100.00
75247;BME280;63844;50.042;19.224;2024-02-14T03:07:08;99509.54;;;0.54;100.00
75247;BME280;63844;50.042;19.224;2024-02-14T03:08:45;99506.03;;;0.55;100.00
75247;BME280;63844;50.042;19.224;2024-02-14T03:10:21;99505.48;;;0.57;100.00
75247;BME280;63844;50.042;19.224;2024-02-14T03:11:58;99503.55;;;0.58;100.00
75247;BME280;63844;50.042;19.224;2024-02-14T03:13:34;99506.17;;;0.57;100.00
75247;BME280;63844;50.042;19.224;2024-02-14T03:15:12;99508.83;;;0.55;100.00
75247;BME280;63844;50.042;19.224;2024-02-14T03:16:49;99509.92;;;0.51;100.00
75247;BME280;63844;50.042;19.224;2024-02-14T03:18:26;99512.73;;;0.50;100.00
75247;BME280;63844;50.042;19.224;2024-02-14T03:20:03;99511.85;;;0.51;100.00
75247;BME280;63844;50.042;19.224;2024-02-14T03:21:44;99515.45;;;0.55;100.00
75247;BME280;63844;50.042;19.224;2024-02-14T03:23:23;99517.33;;;0.56;100.00
75247;BME280;63844;50.042;19.224;2024-02-14T03:24:59;99515.38;;;0.59;100.00
75247;BME280;63844;50.042;19.224;2024-02-14T03:26:36;99514.84;;;0.60;100.00
75247;BME280;63844;50.042;19.224;2024-02-14T03:28:12;99516.22;;;0.60;100.00
75247;BME280;63844;50.042;19.224;2024-02-14T03:29:49;99514.09;;;0.63;100.00
75247;BME280;63844;50.042;19.224;2024-02-14T03:31:27;99514.95;;;0.63;100.00
75247;BME280;63844;50.042;19.224;2024-02-14T03:33:04;99512.89;;;0.62;100.00
75247;BME280;63844;50.042;19.224;2024-02-14T03:34:40;99513.02;;;0.64;100.00
75247;BME280;63844;50.042;19.224;2024-02-14T03:36:17;99514.75;;;0.64;100.00
75247;BME280;63844;50.042;19.224;2024-02-14T03:37:54;99512.61;;;0.67;100.00
75247;BME280;63844;50.042;19.224;2024-02-14T03:39:31;99517.48;;;0.67;100.00
75247;BME280;63844;50.042;19.224;2024-02-14T03:41:07;99517.11;;;0.59;100.00
75247;BME280;63844;50.042;19.224;2024-02-14T03:42:44;99521.92;;;0.52;100.00
75247;BME280;63844;50.042;19.224;2024-02-14T03:44:20;99523.55;;;0.49;100.00
75247;BME280;63844;50.042;19.224;2024-02-14T03:45:56;99523.35;;;0.50;100.00
75247;BME280;63844;50.042;19.224;2024-02-14T03:47:33;99517.08;;;0.52;100.00
75247;BME280;63844;50.042;19.224;2024-02-14T03:49:09;99520.71;;;0.52;100.00
75247;BME280;63844;50.042;19.224;2024-02-14T03:50:46;99518.84;;;0.50;100.00
75247;BME280;63844;50.042;19.224;2024-02-14T03:52:22;99515.06;;;0.46;100.00
75247;BME280;63844;50.042;19.224;2024-02-14T03:53:59;99515.58;;;0.47;100.00
75247;BME280;63844;50.042;19.224;2024-02-14T03:55:37;99517.17;;;0.45;100.00
75247;BME280;63844;50.042;19.224;2024-02-14T03:57:13;99517.88;;;0.44;100.00
75247;BME280;63844;50.042;19.224;2024-02-14T03:58:50;99519.78;;;0.46;100.00
75247;BME280;63844;50.042;19.224;2024-02-14T04:00:27;99524.30;;;0.46;100.00
75247;BME280;63844;50.042;19.224;2024-02-14T04:02:06;99527.13;;;0.43;100.00
75247;BME280;63844;50.042;19.224;2024-02-14T04:03:46;99531.00;;;0.41;100.00
75247;BME280;63844;50.042;19.224;2024-02-14T04:05:24;99528.79;;;0.39;100.00
75247;BME280;63844;50.042;19.224;2024-02-14T04:07:00;99534.02;;;0.38;100.00
75247;BME280;63844;50.042;19.224;2024-02-14T04:08:37;99531.92;;;0.37;100.00
75247;BME280;63844;50.042;19.224;2024-02-14T04:10:13;99534.23;;;0.35;100.00
75247;BME280;63844;50.042;19.224;2024-02-14T04:11:50;99535.51;;;0.31;100.00
75247;BME280;63844;50.042;19.224;2024-02-14T04:13:26;99532.79;;;0.27;100.00
75247;BME280;63844;50.042;19.224;2024-02-14T04:15:03;99534.55;;;0.26;100.00
75247;BME280;63844;50.042;19.224;2024-02-14T04:16:40;99534.74;;;0.23;100.00
75247;BME280;63844;50.042;19.224;2024-02-14T04:18:16;99532.17;;;0.21;100.00
75247;BME280;63844;50.042;19.224;2024-02-14T04:19:54;99536.02;;;0.20;100.00
75247;BME280;63844;50.042;19.224;2024-02-14T04:21:31;99535.88;;;0.18;100.00
75247;BME280;63844;50.042;19.224;2024-02-14T04:23:07;99535.05;;;0.16;100.00
75247;BME280;63844;50.042;19.224;2024-02-14T04:24:44;99536.15;;;0.13;100.00
75247;BME280;63844;50.042;19.224;2024-02-14T04:26:21;99535.30;;;0.10;100.00
75247;BME280;63844;50.042;19.224;2024-02-14T04:27:57;99533.61;;;0.07;100.00
75247;BME280;63844;50.042;19.224;2024-02-14T04:29:35;99539.02;;;0.05;100.00
75247;BME280;63844;50.042;19.224;2024-02-14T04:31:12;99541.17;;;0.03;100.00
75247;BME280;63844;50.042;19.224;2024-02-14T04:32:49;99541.05;;;-0.02;100.00
75247;BME280;63844;50.042;19.224;2024-02-14T04:34:26;99540.39;;;-0.05;100.00
75247;BME280;63844;50.042;19.224;2024-02-14T04:36:02;99542.85;;;-0.06;100.00
75247;BME280;63844;50.042;19.224;2024-02-14T04:37:40;99540.43;;;-0.08;100.00
75247;BME280;63844;50.042;19.224;2024-02-14T04:39:19;99539.82;;;-0.13;100.00
75247;BME280;63844;50.042;19.224;2024-02-14T04:40:56;99544.21;;;-0.16;100.00
75247;BME280;63844;50.042;19.224;2024-02-14T04:42:34;99545.96;;;-0.17;100.00
75247;BME280;63844;50.042;19.224;2024-02-14T04:44:11;99550.66;;;-0.18;100.00
75247;BME280;63844;50.042;19.224;2024-02-14T04:45:47;99555.41;;;-0.22;100.00
75247;BME280;63844;50.042;19.224;2024-02-14T04:47:25;99561.58;;;-0.28;100.00
75247;BME280;63844;50.042;19.224;2024-02-14T04:49:01;99560.95;;;-0.33;100.00
75247;BME280;63844;50.042;19.224;2024-02-14T04:50:39;99559.77;;;-0.35;100.00
75247;BME280;63844;50.042;19.224;2024-02-14T04:52:16;99561.00;;;-0.37;100.00
75247;BME280;63844;50.042;19.224;2024-02-14T04:53:52;99557.56;;;-0.40;100.00
75247;BME280;63844;50.042;19.224;2024-02-14T04:55:30;99559.50;;;-0.42;100.00
75247;BME280;63844;50.042;19.224;2024-02-14T04:57:06;99561.06;;;-0.42;100.00
75247;BME280;63844;50.042;19.224;2024-02-14T04:58:43;99562.64;;;-0.42;100.00
75247;BME280;63844;50.042;19.224;2024-02-14T05:00:19;99560.23;;;-0.44;100.00
75247;BME280;63844;50.042;19.224;2024-02-14T05:01:56;99560.25;;;-0.47;100.00
75247;BME280;63844;50.042;19.224;2024-02-14T05:03:32;99563.23;;;-0.49;100.00
75247;BME280;63844;50.042;19.224;2024-02-14T05:05:09;99563.80;;;-0.53;100.00
75247;BME280;63844;50.042;19.224;2024-02-14T05:06:46;99567.83;;;-0.55;100.00
75247;BME280;63844;50.042;19.224;2024-02-14T05:08:22;99563.86;;;-0.57;100.00
75247;BME280;63844;50.042;19.224;2024-02-14T05:09:59;99567.35;;;-0.58;100.00
75247;BME280;63844;50.042;19.224;2024-02-14T05:11:35;99570.15;;;-0.59;100.00
75247;BME280;63844;50.042;19.224;2024-02-14T05:13:11;99569.27;;;-0.60;100.00
75247;BME280;63844;50.042;19.224;2024-02-14T05:14:49;99568.06;;;-0.60;100.00
75247;BME280;63844;50.042;19.224;2024-02-14T05:16:25;99565.82;;;-0.61;100.00
75247;BME280;63844;50.042;19.224;2024-02-14T05:18:03;99570.89;;;-0.64;100.00
75247;BME280;63844;50.042;19.224;2024-02-14T05:19:42;99567.14;;;-0.71;100.00
75247;BME280;63844;50.042;19.224;2024-02-14T05:21:22;99565.06;;;-0.73;100.00
75247;BME280;63844;50.042;19.224;2024-02-14T05:22:59;99567.00;;;-0.74;100.00
75247;BME280;63844;50.042;19.224;2024-02-14T05:24:35;99568.74;;;-0.75;100.00
75247;BME280;63844;50.042;19.224;2024-02-14T05:26:13;99569.65;;;-0.77;100.00
75247;BME280;63844;50.042;19.224;2024-02-14T05:27:50;99565.87;;;-0.82;100.00
75247;BME280;63844;50.042;19.224;2024-02-14T05:29:26;99565.36;;;-0.82;100.00
75247;BME280;63844;50.042;19.224;2024-02-14T05:31:03;99566.05;;;-0.83;100.00
75247;BME280;63844;50.042;19.224;2024-02-14T05:32:39;99564.84;;;-0.83;100.00
75247;BME280;63844;50.042;19.224;2024-02-14T05:34:16;99564.52;;;-0.84;100.00
75247;BME280;63844;50.042;19.224;2024-02-14T05:35:52;99564.88;;;-0.85;100.00
75247;BME280;63844;50.042;19.224;2024-02-14T05:37:29;99566.65;;;-0.88;100.00
75247;BME280;63844;50.042;19.224;2024-02-14T05:39:06;99563.88;;;-0.91;100.00
75247;BME280;63844;50.042;19.224;2024-02-14T05:40:42;99566.30;;;-0.89;100.00
75247;BME280;63844;50.042;19.224;2024-02-14T05:42:20;99565.23;;;-0.88;100.00
75247;BME280;63844;50.042;19.224;2024-02-14T05:43:57;99565.23;;;-0.88;100.00
75247;BME280;63844;50.042;19.224;2024-02-14T05:45:34;99564.41;;;-0.92;100.00
75247;BME280;63844;50.042;19.224;2024-02-14T05:47:10;99567.73;;;-0.94;100.00
75247;BME280;63844;50.042;19.224;2024-02-14T05:48:47;99567.75;;;-0.95;100.00
75247;BME280;63844;50.042;19.224;2024-02-14T05:50:24;99563.77;;;-0.96;100.00
75247;BME280;63844;50.042;19.224;2024-02-14T05:52:01;99564.46;;;-0.97;100.00
75247;BME280;63844;50.042;19.224;2024-02-14T05:53:37;99568.13;;;-0.98;100.00
75247;BME280;63844;50.042;19.224;2024-02-14T05:55:14;99565.02;;;-1.00;100.00
75247;BME280;63844;50.042;19.224;2024-02-14T05:56:51;99562.08;;;-1.00;100.00
75247;BME280;63844;50.042;19.224;2024-02-14T05:58:27;99565.35;;;-0.99;100.00
75247;BME280;63844;50.042;19.224;2024-02-14T06:00:05;99564.66;;;-0.99;100.00
75247;BME280;63844;50.042;19.224;2024-02-14T06:01:42;99569.89;;;-1.00;100.00
75247;BME280;63844;50.042;19.224;2024-02-14T06:03:18;99567.13;;;-1.02;100.00
75247;BME280;63844;50.042;19.224;2024-02-14T06:04:55;99567.48;;;-1.03;100.00
75247;BME280;63844;50.042;19.224;2024-02-14T06:06:31;99564.89;;;-1.04;100.00
75247;BME280;63844;50.042;19.224;2024-02-14T06:08:08;99565.40;;;-1.04;100.00
75247;BME280;63844;50.042;19.224;2024-02-14T06:09:44;99570.95;;;-1.03;100.00
75247;BME280;63844;50.042;19.224;2024-02-14T06:11:21;99568.70;;;-1.04;100.00
75247;BME280;63844;50.042;19.224;2024-02-14T06:12:58;99574.09;;;-1.04;100.00
75247;BME280;63844;50.042;19.224;2024-02-14T06:14:36;99574.48;;;-1.08;100.00
75247;BME280;63844;50.042;19.224;2024-02-14T06:16:13;99574.15;;;-1.10;100.00
75247;BME280;63844;50.042;19.224;2024-02-14T06:17:49;99577.67;;;-1.14;100.00
75247;BME280;63844;50.042;19.224;2024-02-14T06:19:26;99580.30;;;-1.18;100.00
75247;BME280;63844;50.042;19.224;2024-02-14T06:21:03;99579.80;;;-1.20;100.00
75247;BME280;63844;50.042;19.224;2024-02-14T06:22:39;99582.59;;;-1.21;100.00
75247;BME280;63844;50.042;19.224;2024-02-14T06:24:16;99585.21;;;-1.23;100.00
75247;BME280;63844;50.042;19.224;2024-02-14T06:25:55;99586.63;;;-1.26;100.00
75247;BME280;63844;50.042;19.224;2024-02-14T06:27:31;99588.55;;;-1.28;100.00
75247;BME280;63844;50.042;19.224;2024-02-14T06:29:08;99591.15;;;-1.28;100.00
75247;BME280;63844;50.042;19.224;2024-02-14T06:30:45;99592.37;;;-1.27;100.00
75247;BME280;63844;50.042;19.224;2024-02-14T06:32:21;99596.16;;;-1.25;100.00
75247;BME280;63844;50.042;19.224;2024-02-14T06:33:57;99595.30;;;-1.25;100.00
75247;BME280;63844;50.042;19.224;2024-02-14T06:35:34;99599.80;;;-1.24;100.00
75247;BME280;63844;50.042;19.224;2024-02-14T06:37:10;99598.76;;;-1.23;100.00
75247;BME280;63844;50.042;19.224;2024-02-14T06:38:47;99598.92;;;-1.23;100.00
75247;BME280;63844;50.042;19.224;2024-02-14T06:40:25;99599.62;;;-1.23;100.00
75247;BME280;63844;50.042;19.224;2024-02-14T06:42:03;99599.45;;;-1.24;100.00
75247;BME280;63844;50.042;19.224;2024-02-14T06:43:40;99600.30;;;-1.22;100.00
75247;BME280;63844;50.042;19.224;2024-02-14T06:45:17;99602.38;;;-1.19;100.00
75247;BME280;63844;50.042;19.224;2024-02-14T06:46:54;99608.60;;;-1.17;100.00
75247;BME280;63844;50.042;19.224;2024-02-14T06:48:30;99604.23;;;-1.13;100.00
75247;BME280;63844;50.042;19.224;2024-02-14T06:50:07;99605.06;;;-1.09;100.00
75247;BME280;63844;50.042;19.224;2024-02-14T06:51:44;99604.67;;;-1.06;100.00
75247;BME280;63844;50.042;19.224;2024-02-14T06:53:22;99603.46;;;-1.04;100.00
75247;BME280;63844;50.042;19.224;2024-02-14T06:54:58;99606.21;;;-1.02;100.00
75247;BME280;63844;50.042;19.224;2024-02-14T06:56:35;99605.13;;;-1.00;100.00
75247;BME280;63844;50.042;19.224;2024-02-14T06:58:12;99607.38;;;-0.96;100.00
75247;BME280;63844;50.042;19.224;2024-02-14T06:59:48;99607.54;;;-0.95;100.00
75247;BME280;63844;50.042;19.224;2024-02-14T07:01:26;99606.31;;;-0.95;100.00
75247;BME280;63844;50.042;19.224;2024-02-14T07:03:03;99609.60;;;-0.93;100.00
75247;BME280;63844;50.042;19.224;2024-02-14T07:04:40;99607.85;;;-0.91;100.00
75247;BME280;63844;50.042;19.224;2024-02-14T07:06:17;99607.83;;;-0.90;100.00
75247;BME280;63844;50.042;19.224;2024-02-14T07:07:55;99612.48;;;-0.86;100.00
75247;BME280;63844;50.042;19.224;2024-02-14T07:09:31;99613.15;;;-0.83;100.00
75247;BME280;63844;50.042;19.224;2024-02-14T07:11:11;99611.71;;;-0.79;100.00
75247;BME280;63844;50.042;19.224;2024-02-14T07:12:48;99613.41;;;-0.75;100.00
75247;BME280;63844;50.042;19.224;2024-02-14T07:14:24;99611.11;;;-0.70;100.00
75247;BME280;63844;50.042;19.224;2024-02-14T07:16:01;99613.50;;;-0.65;100.00
75247;BME280;63844;50.042;19.224;2024-02-14T07:17:37;99610.66;;;-0.61;100.00
75247;BME280;63844;50.042;19.224;2024-02-14T07:19:17;99615.31;;;-0.57;100.00
75247;BME280;63844;50.042;19.224;2024-02-14T07:20:55;99614.76;;;-0.53;100.00
75247;BME280;63844;50.042;19.224;2024-02-14T07:22:32;99615.23;;;-0.49;100.00
75247;BME280;63844;50.042;19.224;2024-02-14T07:24:09;99612.55;;;-0.43;100.00
75247;BME280;63844;50.042;19.224;2024-02-14T07:25:46;99609.89;;;-0.39;100.00
75247;BME280;63844;50.042;19.224;2024-02-14T07:27:22;99610.35;;;-0.34;100.00
75247;BME280;63844;50.042;19.224;2024-02-14T07:29:00;99611.52;;;-0.29;100.00
75247;BME280;63844;50.042;19.224;2024-02-14T07:30:39;99607.79;;;-0.24;100.00
75247;BME280;63844;50.042;19.224;2024-02-14T07:32:17;99604.95;;;-0.19;100.00
75247;BME280;63844;50.042;19.224;2024-02-14T07:33:53;99603.82;;;-0.12;100.00
75247;BME280;63844;50.042;19.224;2024-02-14T07:35:30;99602.53;;;-0.07;100.00
75247;BME280;63844;50.042;19.224;2024-02-14T07:37:07;99601.60;;;-0.03;100.00
75247;BME280;63844;50.042;19.224;2024-02-14T07:38:43;99603.61;;;0.05;100.00
75247;BME280;63844;50.042;19.224;2024-02-14T07:40:21;99601.09;;;0.10;100.00
75247;BME280;63844;50.042;19.224;2024-02-14T07:41:57;99601.89;;;0.16;100.00
75247;BME280;63844;50.042;19.224;2024-02-14T07:43:34;99600.41;;;0.22;100.00
75247;BME280;63844;50.042;19.224;2024-02-14T07:45:11;99599.62;;;0.29;100.00
75247;BME280;63844;50.042;19.224;2024-02-14T07:46:49;99603.35;;;0.35;100.00
75247;BME280;63844;50.042;19.224;2024-02-14T07:48:25;99606.06;;;0.40;100.00
75247;BME280;63844;50.042;19.224;2024-02-14T07:50:02;99607.02;;;0.46;100.00
75247;BME280;63844;50.042;19.224;2024-02-14T07:51:39;99605.87;;;0.53;100.00
75247;BME280;63844;50.042;19.224;2024-02-14T07:53:15;99604.56;;;0.58;100.00
75247;BME280;63844;50.042;19.224;2024-02-14T07:54:53;99601.67;;;0.64;100.00
75247;BME280;63844;50.042;19.224;2024-02-14T07:56:32;99601.73;;;0.72;100.00
75247;BME280;63844;50.042;19.224;2024-02-14T07:58:09;99598.98;;;0.80;100.00
75247;BME280;63844;50.042;19.224;2024-02-14T07:59:45;99600.59;;;0.88;100.00
75247;BME280;63844;50.042;19.224;2024-02-14T08:01:21;99603.07;;;0.96;100.00
75247;BME280;63844;50.042;19.224;2024-02-14T08:02:58;99602.91;;;1.04;100.00
75247;BME280;63844;50.042;19.224;2024-02-14T08:04:34;99602.95;;;1.12;100.00
75247;BME280;63844;50.042;19.224;2024-02-14T08:06:11;99603.48;;;1.21;100.00
75247;BME280;63844;50.042;19.224;2024-02-14T08:07:48;99600.54;;;1.30;100.00
75247;BME280;63844;50.042;19.224;2024-02-14T08:09:24;99600.75;;;1.38;100.00
75247;BME280;63844;50.042;19.224;2024-02-14T08:11:01;99597.13;;;1.44;100.00
75247;BME280;63844;50.042;19.224;2024-02-14T08:12:37;99600.96;;;1.54;100.00
75247;BME280;63844;50.042;19.224;2024-02-14T08:14:14;99601.48;;;1.63;100.00
75247;BME280;63844;50.042;19.224;2024-02-14T08:15:50;99605.52;;;1.70;100.00
75247;BME280;63844;50.042;19.224;2024-02-14T08:17:27;99603.11;;;1.77;100.00
75247;BME280;63844;50.042;19.224;2024-02-14T08:19:03;99602.59;;;1.85;100.00
75247;BME280;63844;50.042;19.224;2024-02-14T08:20:40;99602.40;;;1.94;100.00
75247;BME280;63844;50.042;19.224;2024-02-14T08:22:17;99603.08;;;2.04;100.00
75247;BME280;63844;50.042;19.224;2024-02-14T08:23:54;99603.24;;;2.12;100.00